KTPH/TPH METAR and TAF weather

Enter ICAO airport designator
Station Type Date Time Source
KTPH METAR 2021/09/25 11:56 UTC NOAA

KTPH 251156Z AUTO 35008KT 10SM CLR 11/M09 A3020 RMK AO2 SLP163 T01061089 10144 20106 56001


Station Type Date Time Source
KTPH Decoded METAR 2021/09/25 11:56 UTC NOAA

TONOPAH AIRPORT, NV, United States (KTPH) 38-02N 117-05W 1652M
Sep 25, 2021 - 07:56 AM EDT / 2021.09.25 1156 UTC
Wind: from the N (350 degrees) at 9 MPH (8 KT):0
Visibility: 10 mile(s):0
Sky conditions: clear
Temperature: 51.1 F (10.6 C)
Dew Point: 16.0 F (-8.9 C)
Relative Humidity: 24%
Pressure (altimeter): 30.2 in. Hg (1022 hPa)
Pressure tendency: 0.00 inches (0.1 hPa) lower than three hours ago
ob: KTPH 251156Z AUTO 35008KT 10SM CLR 11/M09 A3020 RMK AO2 SLP163 T01061089 10144 20106 56001
cycle: 12

Station Type Date Time Source
KTPH TAF 2021/09/25 12:30 UTC NOAA

TAF KTPH 251129Z 2512/2612 36007KT P6SM SKC
FM251600 VRB06KT P6SM SKC
FM260300 36007KT P6SM SKC

Example: see airport list